sensor_id;sensor_type;location;lat;lon;timestamp;pressure;altitude;pressure_sealevel;temperature;humidity
64521;BME280;50896;46.714;17.322;2023-03-14T00:01:16;99489.09;;;11.98;54.21
64521;BME280;50896;46.714;17.322;2023-03-14T00:03:43;99472.63;;;11.88;54.38
64521;BME280;50896;46.714;17.322;2023-03-14T00:06:11;99484.34;;;11.93;54.97
64521;BME280;50896;46.714;17.322;2023-03-14T00:08:39;99476.69;;;11.84;55.35
64521;BME280;50896;46.714;17.322;2023-03-14T00:11:08;99495.88;;;11.79;55.42
64521;BME280;50896;46.714;17.322;2023-03-14T00:13:35;99487.47;;;11.75;56.07
64521;BME280;50896;46.714;17.322;2023-03-14T00:16:10;99472.22;;;11.62;55.67
64521;BME280;50896;46.714;17.322;2023-03-14T00:18:37;99474.69;;;11.64;55.63
64521;BME280;50896;46.714;17.322;2023-03-14T00:21:06;99453.81;;;11.68;55.14
64521;BME280;50896;46.714;17.322;2023-03-14T00:23:34;99454.19;;;11.65;55.37
64521;BME280;50896;46.714;17.322;2023-03-14T00:26:21;99471.56;;;11.82;54.79
64521;BME280;50896;46.714;17.322;2023-03-14T00:28:51;99464.63;;;11.88;54.29
64521;BME280;50896;46.714;17.322;2023-03-14T00:31:18;99474.06;;;11.90;53.87
64521;BME280;50896;46.714;17.322;2023-03-14T00:33:45;99457.69;;;11.93;53.93
64521;BME280;50896;46.714;17.322;2023-03-14T00:36:17;99470.84;;;11.95;53.73
64521;BME280;50896;46.714;17.322;2023-03-14T00:38:45;99470.38;;;11.91;53.56
64521;BME280;50896;46.714;17.322;2023-03-14T00:41:14;99457.69;;;11.93;53.64
64521;BME280;50896;46.714;17.322;2023-03-14T00:43:42;99455.03;;;11.93;53.54
64521;BME280;50896;46.714;17.322;2023-03-14T00:46:09;99451.72;;;11.91;53.61
64521;BME280;50896;46.714;17.322;2023-03-14T00:48:37;99445.88;;;11.74;53.54
64521;BME280;50896;46.714;17.322;2023-03-14T00:51:05;99459.53;;;11.93;52.99
64521;BME280;50896;46.714;17.322;2023-03-14T00:53:36;99461.84;;;11.96;52.68
64521;BME280;50896;46.714;17.322;2023-03-14T00:56:05;99450.91;;;11.91;52.97
64521;BME280;50896;46.714;17.322;2023-03-14T00:58:33;99447.03;;;11.93;52.33
64521;BME280;50896;46.714;17.322;2023-03-14T01:01:08;99430.22;;;11.86;52.33
64521;BME280;50896;46.714;17.322;2023-03-14T01:03:36;99444.47;;;12.00;52.23
64521;BME280;50896;46.714;17.322;2023-03-14T01:08:34;99433.97;;;11.99;51.55
64521;BME280;50896;46.714;17.322;2023-03-14T01:11:08;99426.44;;;12.02;51.18
64521;BME280;50896;46.714;17.322;2023-03-14T01:13:36;99412.50;;;12.07;51.33
64521;BME280;50896;46.714;17.322;2023-03-14T01:16:05;99412.66;;;11.99;51.21
64521;BME280;50896;46.714;17.322;2023-03-14T01:18:37;99410.25;;;12.04;51.08
64521;BME280;50896;46.714;17.322;2023-03-14T01:21:29;99382.75;;;11.96;50.93
64521;BME280;50896;46.714;17.322;2023-03-14T01:23:57;99400.59;;;12.03;50.99
64521;BME280;50896;46.714;17.322;2023-03-14T01:26:27;99384.47;;;12.11;50.37
64521;BME280;50896;46.714;17.322;2023-03-14T01:28:55;99371.97;;;12.11;50.45
64521;BME280;50896;46.714;17.322;2023-03-14T01:31:24;99354.75;;;12.07;49.91
64521;BME280;50896;46.714;17.322;2023-03-14T01:33:51;99350.88;;;12.10;49.95
64521;BME280;50896;46.714;17.322;2023-03-14T01:36:18;99335.81;;;11.95;50.33
64521;BME280;50896;46.714;17.322;2023-03-14T01:38:45;99342.00;;;12.03;50.51
64521;BME280;50896;46.714;17.322;2023-03-14T01:41:24;99351.25;;;12.07;50.61
64521;BME280;50896;46.714;17.322;2023-03-14T01:43:52;99306.38;;;11.69;50.89
64521;BME280;50896;46.714;17.322;2023-03-14T01:56:41;99335.75;;;11.82;51.80
64521;BME280;50896;46.714;17.322;2023-03-14T01:59:11;99332.63;;;11.78;52.00
64521;BME280;50896;46.714;17.322;2023-03-14T02:01:40;99339.41;;;11.81;51.82
64521;BME280;50896;46.714;17.322;2023-03-14T02:04:09;99339.63;;;11.79;51.77
64521;BME280;50896;46.714;17.322;2023-03-14T02:06:48;99329.53;;;11.68;51.90
64521;BME280;50896;46.714;17.322;2023-03-14T02:09:18;99332.41;;;11.73;52.05
64521;BME280;50896;46.714;17.322;2023-03-14T02:11:47;99327.06;;;11.73;52.20
64521;BME280;50896;46.714;17.322;2023-03-14T02:14:32;99309.19;;;11.60;52.42
64521;BME280;50896;46.714;17.322;2023-03-14T02:17:31;99294.28;;;11.66;52.61
64521;BME280;50896;46.714;17.322;2023-03-14T02:22:54;99255.53;;;11.57;52.98
64521;BME280;50896;46.714;17.322;2023-03-14T02:25:46;99249.81;;;11.60;52.72
64521;BME280;50896;46.714;17.322;2023-03-14T02:28:14;99234.00;;;11.52;53.31
64521;BME280;50896;46.714;17.322;2023-03-14T02:30:42;99229.94;;;11.56;52.50
64521;BME280;50896;46.714;17.322;2023-03-14T02:33:15;99226.44;;;11.55;52.63
64521;BME280;50896;46.714;17.322;2023-03-14T02:36:00;99215.41;;;11.58;51.88
64521;BME280;50896;46.714;17.322;2023-03-14T02:41:00;99222.19;;;11.68;52.34
64521;BME280;50896;46.714;17.322;2023-03-14T02:43:28;99222.75;;;11.56;52.59
64521;BME280;50896;46.714;17.322;2023-03-14T02:46:00;99204.97;;;11.63;52.46
64521;BME280;50896;46.714;17.322;2023-03-14T02:48:51;99204.16;;;11.63;52.44
64521;BME280;50896;46.714;17.322;2023-03-14T02:51:21;99190.41;;;11.59;52.71
64521;BME280;50896;46.714;17.322;2023-03-14T02:53:48;99174.81;;;11.43;53.13
64521;BME280;50896;46.714;17.322;2023-03-14T02:56:15;99202.47;;;11.55;53.52
64521;BME280;50896;46.714;17.322;2023-03-14T02:58:43;99181.38;;;11.47;53.66
64521;BME280;50896;46.714;17.322;2023-03-14T03:01:28;99189.81;;;11.57;53.24
64521;BME280;50896;46.714;17.322;2023-03-14T03:03:55;99193.69;;;11.55;53.29
64521;BME280;50896;46.714;17.322;2023-03-14T03:06:22;99210.25;;;11.50;53.54
64521;BME280;50896;46.714;17.322;2023-03-14T03:08:49;99208.63;;;11.56;53.44
64521;BME280;50896;46.714;17.322;2023-03-14T03:11:17;99206.38;;;11.53;53.57
64521;BME280;50896;46.714;17.322;2023-03-14T03:13:44;99195.84;;;11.38;53.97
64521;BME280;50896;46.714;17.322;2023-03-14T03:16:13;99193.84;;;11.46;54.14
64521;BME280;50896;46.714;17.322;2023-03-14T03:18:41;99176.84;;;11.41;54.30
64521;BME280;50896;46.714;17.322;2023-03-14T03:21:08;99171.69;;;11.33;54.57
64521;BME280;50896;46.714;17.322;2023-03-14T03:23:36;99173.31;;;11.34;55.10
64521;BME280;50896;46.714;17.322;2023-03-14T03:26:05;99167.03;;;11.41;54.52
64521;BME280;50896;46.714;17.322;2023-03-14T03:28:32;99162.09;;;11.45;54.19
64521;BME280;50896;46.714;17.322;2023-03-14T03:30:59;99149.81;;;11.44;54.19
64521;BME280;50896;46.714;17.322;2023-03-14T03:33:26;99156.00;;;11.58;53.99
64521;BME280;50896;46.714;17.322;2023-03-14T03:35:53;99157.06;;;11.70;53.77
64521;BME280;50896;46.714;17.322;2023-03-14T03:38:28;99137.66;;;11.76;53.49
64521;BME280;50896;46.714;17.322;2023-03-14T03:40:55;99077.41;;;11.69;53.03
64521;BME280;50896;46.714;17.322;2023-03-14T03:43:25;99113.69;;;11.90;53.22
64521;BME280;50896;46.714;17.322;2023-03-14T03:45:52;99110.22;;;11.89;54.04
64521;BME280;50896;46.714;17.322;2023-03-14T03:48:21;99123.34;;;11.91;53.37
64521;BME280;50896;46.714;17.322;2023-03-14T03:50:48;99104.66;;;11.77;53.49
64521;BME280;50896;46.714;17.322;2023-03-14T03:53:19;99121.47;;;11.78;53.79
64521;BME280;50896;46.714;17.322;2023-03-14T03:56:00;99125.75;;;11.72;53.99
64521;BME280;50896;46.714;17.322;2023-03-14T03:58:28;99127.78;;;11.70;54.02
64521;BME280;50896;46.714;17.322;2023-03-14T04:00:55;99121.88;;;11.68;53.86
64521;BME280;50896;46.714;17.322;2023-03-14T04:03:22;99098.66;;;11.55;54.24
64521;BME280;50896;46.714;17.322;2023-03-14T04:06:04;99107.50;;;11.56;54.31
64521;BME280;50896;46.714;17.322;2023-03-14T04:08:33;99090.09;;;11.60;54.20
64521;BME280;50896;46.714;17.322;2023-03-14T04:11:01;99085.38;;;11.55;54.34
64521;BME280;50896;46.714;17.322;2023-03-14T04:13:45;99090.31;;;11.58;54.57
64521;BME280;50896;46.714;17.322;2023-03-14T04:16:18;99108.13;;;11.65;54.38
64521;BME280;50896;46.714;17.322;2023-03-14T04:18:47;99111.16;;;11.55;54.19
64521;BME280;50896;46.714;17.322;2023-03-14T04:21:15;99126.75;;;11.65;54.49
64521;BME280;50896;46.714;17.322;2023-03-14T04:23:48;99133.72;;;11.66;54.45
64521;BME280;50896;46.714;17.322;2023-03-14T04:26:16;99134.94;;;11.63;54.56
64521;BME280;50896;46.714;17.322;2023-03-14T04:28:44;99132.50;;;11.68;54.41
64521;BME280;50896;46.714;17.322;2023-03-14T04:31:16;99108.50;;;11.55;54.79
64521;BME280;50896;46.714;17.322;2023-03-14T04:33:44;99140.88;;;11.65;55.06
64521;BME280;50896;46.714;17.322;2023-03-14T04:36:13;99133.09;;;11.63;55.20
64521;BME280;50896;46.714;17.322;2023-03-14T04:38:41;99144.78;;;11.69;54.95
64521;BME280;50896;46.714;17.322;2023-03-14T04:41:09;99140.06;;;11.65;55.03
64521;BME280;50896;46.714;17.322;2023-03-14T04:43:36;99144.38;;;11.66;55.10
64521;BME280;50896;46.714;17.322;2023-03-14T04:46:06;99153.59;;;11.70;55.22
64521;BME280;50896;46.714;17.322;2023-03-14T04:48:33;99137.84;;;11.68;55.26
64521;BME280;50896;46.714;17.322;2023-03-14T04:51:00;99141.94;;;11.77;55.06
64521;BME280;50896;46.714;17.322;2023-03-14T04:53:30;99138.47;;;11.77;55.56
64521;BME280;50896;46.714;17.322;2023-03-14T04:56:01;99138.47;;;11.77;55.79
64521;BME280;50896;46.714;17.322;2023-03-14T04:58:34;99118.78;;;11.65;55.96
64521;BME280;50896;46.714;17.322;2023-03-14T05:01:04;99128.03;;;11.75;55.59
64521;BME280;50896;46.714;17.322;2023-03-14T05:03:38;99143.56;;;11.72;56.24
64521;BME280;50896;46.714;17.322;2023-03-14T05:06:29;99168.13;;;11.67;56.25
64521;BME280;50896;46.714;17.322;2023-03-14T05:08:59;99170.00;;;11.67;56.37
64521;BME280;50896;46.714;17.322;2023-03-14T05:11:45;99183.72;;;11.77;55.97
64521;BME280;50896;46.714;17.322;2023-03-14T05:14:29;99181.06;;;11.77;56.38
64521;BME280;50896;46.714;17.322;2023-03-14T05:17:10;99196.03;;;11.78;56.43
64521;BME280;50896;46.714;17.322;2023-03-14T05:19:56;99192.53;;;11.77;56.57
64521;BME280;50896;46.714;17.322;2023-03-14T05:22:25;99181.88;;;11.71;56.59
64521;BME280;50896;46.714;17.322;2023-03-14T05:25:12;99196.03;;;11.78;57.02
64521;BME280;50896;46.714;17.322;2023-03-14T05:28:00;99194.81;;;11.80;56.94
64521;BME280;50896;46.714;17.322;2023-03-14T05:30:50;99204.63;;;11.80;57.18
64521;BME280;50896;46.714;17.322;2023-03-14T05:33:40;99208.31;;;11.72;57.42
64521;BME280;50896;46.714;17.322;2023-03-14T05:36:27;99203.38;;;11.76;57.41
64521;BME280;50896;46.714;17.322;2023-03-14T05:39:04;99208.09;;;11.74;57.74
64521;BME280;50896;46.714;17.322;2023-03-14T05:41:40;99215.88;;;11.75;58.06
64521;BME280;50896;46.714;17.322;2023-03-14T05:44:30;99195.19;;;11.71;58.09
64521;BME280;50896;46.714;17.322;2023-03-14T05:47:24;99205.00;;;11.70;58.02
64521;BME280;50896;46.714;17.322;2023-03-14T05:50:13;99216.13;;;11.80;58.05
64521;BME280;50896;46.714;17.322;2023-03-14T05:52:59;99214.88;;;11.83;58.47
64521;BME280;50896;46.714;17.322;2023-03-14T05:55:44;99206.69;;;11.78;58.37
64521;BME280;50896;46.714;17.322;2023-03-14T05:58:37;99222.25;;;11.81;58.70
64521;BME280;50896;46.714;17.322;2023-03-14T06:01:25;99217.56;;;11.90;58.91
64521;BME280;50896;46.714;17.322;2023-03-14T06:04:07;99227.00;;;11.92;59.36
64521;BME280;50896;46.714;17.322;2023-03-14T06:06:34;99216.13;;;11.87;59.25
64521;BME280;50896;46.714;17.322;2023-03-14T06:09:01;99230.97;;;12.03;59.30
64521;BME280;50896;46.714;17.322;2023-03-14T06:11:31;99231.56;;;12.05;59.05
64521;BME280;50896;46.714;17.322;2023-03-14T06:13:57;99223.97;;;12.02;59.23
64521;BME280;50896;46.714;17.322;2023-03-14T06:16:24;99229.91;;;11.98;59.46
64521;BME280;50896;46.714;17.322;2023-03-14T06:18:53;99235.84;;;12.00;59.86
64521;BME280;50896;46.714;17.322;2023-03-14T06:21:22;99242.84;;;12.01;60.01
64521;BME280;50896;46.714;17.322;2023-03-14T06:23:48;99232.78;;;12.03;60.31
64521;BME280;50896;46.714;17.322;2023-03-14T06:26:16;99230.97;;;12.03;60.68
64521;BME280;50896;46.714;17.322;2023-03-14T06:28:43;99212.31;;;12.17;60.55
64521;BME280;50896;46.714;17.322;2023-03-14T06:31:10;99212.31;;;12.17;61.29
64521;BME280;50896;46.714;17.322;2023-03-14T06:33:46;99219.31;;;12.24;61.62
64521;BME280;50896;46.714;17.322;2023-03-14T06:36:14;99226.94;;;12.34;61.36
64521;BME280;50896;46.714;17.322;2023-03-14T06:38:44;99238.63;;;12.46;61.21
64521;BME280;50896;46.714;17.322;2023-03-14T06:41:10;99233.91;;;12.55;61.09
64521;BME280;50896;46.714;17.322;2023-03-14T06:43:40;99227.16;;;12.59;61.56
64521;BME280;50896;46.714;17.322;2023-03-14T06:46:07;99240.88;;;12.70;60.93
64521;BME280;50896;46.714;17.322;2023-03-14T06:48:37;99238.03;;;12.71;61.04
64521;BME280;50896;46.714;17.322;2023-03-14T06:51:05;99239.66;;;12.79;60.87
64521;BME280;50896;46.714;17.322;2023-03-14T06:53:33;99241.53;;;12.85;61.00
64521;BME280;50896;46.714;17.322;2023-03-14T06:56:01;99249.13;;;12.88;60.50
64521;BME280;50896;46.714;17.322;2023-03-14T06:58:30;99258.16;;;12.94;60.04
64521;BME280;50896;46.714;17.322;2023-03-14T07:00:58;99267.16;;;12.86;59.95
64521;BME280;50896;46.714;17.322;2023-03-14T07:03:31;99263.88;;;12.84;59.94
64521;BME280;50896;46.714;17.322;2023-03-14T07:05:58;99253.81;;;12.79;59.21
64521;BME280;50896;46.714;17.322;2023-03-14T07:08:26;99253.00;;;12.79;59.01
64521;BME280;50896;46.714;17.322;2023-03-14T07:10:56;99246.03;;;12.85;58.85
64521;BME280;50896;46.714;17.322;2023-03-14T07:13:23;99257.50;;;12.98;58.34
64521;BME280;50896;46.714;17.322;2023-03-14T07:16:01;99260.59;;;12.95;58.54
64521;BME280;50896;46.714;17.322;2023-03-14T07:18:28;99243.78;;;12.88;58.22
64521;BME280;50896;46.714;17.322;2023-03-14T07:20:55;99257.72;;;12.97;58.19
64521;BME280;50896;46.714;17.322;2023-03-14T07:23:23;99258.16;;;13.01;58.20
64521;BME280;50896;46.714;17.322;2023-03-14T07:25:52;99254.47;;;12.95;58.00
64521;BME280;50896;46.714;17.322;2023-03-14T07:28:22;99270.84;;;13.12;57.41
64521;BME280;50896;46.714;17.322;2023-03-14T07:30:56;99280.09;;;13.16;57.26
64521;BME280;50896;46.714;17.322;2023-03-14T07:33:28;99277.41;;;13.16;58.24
64521;BME280;50896;46.714;17.322;2023-03-14T07:35:55;99290.94;;;13.28;58.37
64521;BME280;50896;46.714;17.322;2023-03-14T07:38:22;99288.69;;;13.45;57.45
64521;BME280;50896;46.714;17.322;2023-03-14T07:41:12;99276.34;;;13.50;55.87
64521;BME280;50896;46.714;17.322;2023-03-14T07:43:46;99305.22;;;13.87;53.18
64521;BME280;50896;46.714;17.322;2023-03-14T07:46:13;99274.31;;;14.05;52.35
64521;BME280;50896;46.714;17.322;2023-03-14T07:48:41;99292.75;;;14.19;52.49
64521;BME280;50896;46.714;17.322;2023-03-14T07:51:08;99279.75;;;14.30;51.61
64521;BME280;50896;46.714;17.322;2023-03-14T07:53:35;99278.69;;;14.38;51.48
64521;BME280;50896;46.714;17.322;2023-03-14T07:56:01;99265.47;;;14.43;51.35
64521;BME280;50896;46.714;17.322;2023-03-14T07:58:28;99256.81;;;14.47;51.08
64521;BME280;50896;46.714;17.322;2023-03-14T08:00:55;99248.53;;;14.56;50.05
64521;BME280;50896;46.714;17.322;2023-03-14T08:03:22;99257.03;;;14.78;49.10
64521;BME280;50896;46.714;17.322;2023-03-14T08:05:49;99236.69;;;14.77;49.52
64521;BME280;50896;46.714;17.322;2023-03-14T08:08:18;99246.25;;;14.84;49.77
64521;BME280;50896;46.714;17.322;2023-03-14T08:10:45;99253.97;;;14.99;48.80
64521;BME280;50896;46.714;17.322;2023-03-14T08:13:13;99254.72;;;15.07;49.18
64521;BME280;50896;46.714;17.322;2023-03-14T08:15:40;99260.03;;;15.13;48.34
64521;BME280;50896;46.714;17.322;2023-03-14T08:18:07;99245.84;;;15.13;47.86
64521;BME280;50896;46.714;17.322;2023-03-14T08:20:35;99262.59;;;15.27;47.95
64521;BME280;50896;46.714;17.322;2023-03-14T08:23:02;99253.50;;;15.28;48.25
64521;BME280;50896;46.714;17.322;2023-03-14T08:25:29;99241.06;;;15.33;49.04
64521;BME280;50896;46.714;17.322;2023-03-14T08:27:56;99240.88;;;15.35;48.67
64521;BME280;50896;46.714;17.322;2023-03-14T08:30:23;99220.25;;;15.35;48.79
64521;BME280;50896;46.714;17.322;2023-03-14T08:32:50;99224.13;;;15.58;47.57
64521;BME280;50896;46.714;17.322;2023-03-14T08:35:18;99224.06;;;15.65;47.51
64521;BME280;50896;46.714;17.322;2023-03-14T08:37:45;99223.13;;;15.71;46.21
64521;BME280;50896;46.714;17.322;2023-03-14T08:40:12;99220.22;;;15.72;46.40
64521;BME280;50896;46.714;17.322;2023-03-14T08:42:39;99205.81;;;15.73;46.38
64521;BME280;50896;46.714;17.322;2023-03-14T08:45:07;99205.16;;;15.78;46.52
64521;BME280;50896;46.714;17.322;2023-03-14T08:47:34;99202.38;;;15.85;47.12
64521;BME280;50896;46.714;17.322;2023-03-14T08:50:03;99176.31;;;15.73;47.38
64521;BME280;50896;46.714;17.322;2023-03-14T08:52:31;99186.31;;;15.85;46.57
64521;BME280;50896;46.714;17.322;2023-03-14T08:54:58;99181.31;;;15.88;47.05
64521;BME280;50896;46.714;17.322;2023-03-14T08:57:26;99166.88;;;15.89;45.85
64521;BME280;50896;46.714;17.322;2023-03-14T08:59:56;99164.69;;;15.98;46.25
64521;BME280;50896;46.714;17.322;2023-03-14T09:02:25;99160.13;;;15.99;46.51
64521;BME280;50896;46.714;17.322;2023-03-14T09:04:52;99143.97;;;16.05;46.21
64521;BME280;50896;46.714;17.322;2023-03-14T09:07:19;99150.50;;;16.10;46.31
64521;BME280;50896;46.714;17.322;2023-03-14T09:09:46;99146.78;;;16.22;46.22
64521;BME280;50896;46.714;17.322;2023-03-14T09:12:13;99137.38;;;16.32;44.79
64521;BME280;50896;46.714;17.322;2023-03-14T09:14:40;99117.66;;;16.26;44.77
64521;BME280;50896;46.714;17.322;2023-03-14T09:17:07;99099.22;;;16.18;45.26
64521;BME280;50896;46.714;17.322;2023-03-14T09:19:34;99088.16;;;16.26;44.79
64521;BME280;50896;46.714;17.322;2023-03-14T09:22:01;99099.63;;;16.45;44.77
64521;BME280;50896;46.714;17.322;2023-03-14T09:24:29;99091.34;;;16.47;44.55
64521;BME280;50896;46.714;17.322;2023-03-14T09:26:56;99087.38;;;16.61;44.23
64521;BME280;50896;46.714;17.322;2023-03-14T09:29:23;99103.69;;;16.71;43.98
64521;BME280;50896;46.714;17.322;2023-03-14T09:31:51;99092.34;;;16.81;44.00
64521;BME280;50896;46.714;17.322;2023-03-14T09:34:18;99091.22;;;16.89;43.41
64521;BME280;50896;46.714;17.322;2023-03-14T09:36:45;99071.22;;;16.85;43.86
64521;BME280;50896;46.714;17.322;2023-03-14T09:39:12;99085.84;;;16.89;43.83
64521;BME280;50896;46.714;17.322;2023-03-14T09:41:41;99086.28;;;16.86;44.31
64521;BME280;50896;46.714;17.322;2023-03-14T09:44:29;99093.28;;;16.87;44.63
64521;BME280;50896;46.714;17.322;2023-03-14T09:47:03;99083.59;;;16.86;42.89
64521;BME280;50896;46.714;17.322;2023-03-14T09:49:35;99086.41;;;16.91;43.51
64521;BME280;50896;46.714;17.322;2023-03-14T09:52:11;99079.53;;;16.95;44.13
64521;BME280;50896;46.714;17.322;2023-03-14T09:54:44;99079.28;;;17.08;43.11
64521;BME280;50896;46.714;17.322;2023-03-14T09:57:16;99077.69;;;17.24;43.14
64521;BME280;50896;46.714;17.322;2023-03-14T09:59:45;99060.22;;;17.22;44.05
64521;BME280;50896;46.714;17.322;2023-03-14T10:02:16;99065.59;;;17.22;43.63
64521;BME280;50896;46.714;17.322;2023-03-14T10:04:48;99059.00;;;17.30;43.47
64521;BME280;50896;46.714;17.322;2023-03-14T10:07:32;99062.41;;;17.25;44.49
64521;BME280;50896;46.714;17.322;2023-03-14T10:10:00;99063.59;;;17.17;42.97
64521;BME280;50896;46.714;17.322;2023-03-14T10:12:35;99058.56;;;17.21;42.26
64521;BME280;50896;46.714;17.322;2023-03-14T10:15:13;99055.97;;;17.26;42.47
64521;BME280;50896;46.714;17.322;2023-03-14T10:17:48;99054.22;;;17.32;42.40
64521;BME280;50896;46.714;17.322;2023-03-14T10:20:36;99051.47;;;17.43;42.46
64521;BME280;50896;46.714;17.322;2023-03-14T10:23:17;99030.41;;;17.52;42.13
64521;BME280;50896;46.714;17.322;2023-03-14T10:25:58;99007.13;;;17.58;42.32
64521;BME280;50896;46.714;17.322;2023-03-14T10:28:29;99029.47;;;17.75;40.92
64521;BME280;50896;46.714;17.322;2023-03-14T10:30:57;99033.44;;;17.90;40.83
64521;BME280;50896;46.714;17.322;2023-03-14T10:33:27;99032.81;;;18.00;39.79
64521;BME280;50896;46.714;17.322;2023-03-14T10:38:27;99012.22;;;18.22;39.23
64521;BME280;50896;46.714;17.322;2023-03-14T10:40:55;99017.66;;;18.27;39.11
64521;BME280;50896;46.714;17.322;2023-03-14T10:43:35;99006.47;;;18.36;39.55
64521;BME280;50896;46.714;17.322;2023-03-14T10:46:09;99015.16;;;18.43;40.16
64521;BME280;50896;46.714;17.322;2023-03-14T10:48:58;99003.72;;;18.53;40.54
64521;BME280;50896;46.714;17.322;2023-03-14T10:51:28;98998.25;;;18.65;37.51
64521;BME280;50896;46.714;17.322;2023-03-14T10:53:58;98992.09;;;18.69;38.03
64521;BME280;50896;46.714;17.322;2023-03-14T10:56:28;98993.22;;;18.73;37.62
64521;BME280;50896;46.714;17.322;2023-03-14T10:58:59;98989.03;;;18.83;37.75
64521;BME280;50896;46.714;17.322;2023-03-14T11:01:51;98962.59;;;18.79;37.03
64521;BME280;50896;46.714;17.322;2023-03-14T11:07:21;98987.78;;;19.12;36.50
64521;BME280;50896;46.714;17.322;2023-03-14T11:10:01;98991.69;;;19.27;35.90
64521;BME280;50896;46.714;17.322;2023-03-14T11:18:12;98974.75;;;19.59;35.71
64521;BME280;50896;46.714;17.322;2023-03-14T11:21:05;98967.22;;;19.61;33.90
64521;BME280;50896;46.714;17.322;2023-03-14T11:26:26;98953.50;;;20.00;35.53
64521;BME280;50896;46.714;17.322;2023-03-14T11:29:12;98935.78;;;20.09;36.13
64521;BME280;50896;46.714;17.322;2023-03-14T11:31:45;98943.97;;;20.30;34.99
64521;BME280;50896;46.714;17.322;2023-03-14T11:34:35;98944.00;;;20.35;33.46
64521;BME280;50896;46.714;17.322;2023-03-14T11:37:07;98929.50;;;20.52;33.59
64521;BME280;50896;46.714;17.322;2023-03-14T11:39:44;98921.34;;;20.41;33.96
64521;BME280;50896;46.714;17.322;2023-03-14T11:42:17;98914.75;;;20.75;33.61
64521;BME280;50896;46.714;17.322;2023-03-14T11:44:47;98895.91;;;21.83;32.78
64521;BME280;50896;46.714;17.322;2023-03-14T11:47:26;98895.78;;;23.29;30.19
64521;BME280;50896;46.714;17.322;2023-03-14T11:50:02;98880.53;;;24.84;28.15
64521;BME280;50896;46.714;17.322;2023-03-14T11:53:02;98878.97;;;24.58;28.00
64521;BME280;50896;46.714;17.322;2023-03-14T11:55:34;98873.34;;;25.12;27.21
64521;BME280;50896;46.714;17.322;2023-03-14T12:00:51;98860.72;;;25.35;26.53
64521;BME280;50896;46.714;17.322;2023-03-14T12:06:21;98860.78;;;22.98;28.88
64521;BME280;50896;46.714;17.322;2023-03-14T12:08:55;98857.88;;;22.84;30.00
64521;BME280;50896;46.714;17.322;2023-03-14T12:13:55;98845.91;;;21.44;31.26
64521;BME280;50896;46.714;17.322;2023-03-14T12:18:52;98853.94;;;20.62;32.46
64521;BME280;50896;46.714;17.322;2023-03-14T12:21:20;98851.66;;;20.23;32.99
64521;BME280;50896;46.714;17.322;2023-03-14T12:23:52;98830.81;;;20.03;33.02
64521;BME280;50896;46.714;17.322;2023-03-14T12:26:25;98818.09;;;19.93;33.61
64521;BME280;50896;46.714;17.322;2023-03-14T12:32:05;98823.41;;;19.83;34.31
64521;BME280;50896;46.714;17.322;2023-03-14T12:34:34;98822.88;;;19.80;34.25
64521;BME280;50896;46.714;17.322;2023-03-14T12:47:47;98825.50;;;19.27;35.91
64521;BME280;50896;46.714;17.322;2023-03-14T12:50:24;98816.47;;;19.11;35.61
64521;BME280;50896;46.714;17.322;2023-03-14T12:58:38;98824.66;;;18.89;36.59
64521;BME280;50896;46.714;17.322;2023-03-14T13:01:16;98795.63;;;18.69;37.03
64521;BME280;50896;46.714;17.322;2023-03-14T13:03:54;98813.94;;;18.72;36.19
64521;BME280;50896;46.714;17.322;2023-03-14T13:06:49;98805.28;;;18.65;35.93
64521;BME280;50896;46.714;17.322;2023-03-14T13:12:03;98812.69;;;18.53;36.76
64521;BME280;50896;46.714;17.322;2023-03-14T13:14:35;98811.97;;;18.35;37.40
64521;BME280;50896;46.714;17.322;2023-03-14T13:17:03;98820.16;;;18.23;37.23
64521;BME280;50896;46.714;17.322;2023-03-14T13:19:56;98813.13;;;18.17;37.25
64521;BME280;50896;46.714;17.322;2023-03-14T13:22:27;98801.94;;;18.03;37.41
64521;BME280;50896;46.714;17.322;2023-03-14T13:25:06;98806.03;;;17.89;37.78
64521;BME280;50896;46.714;17.322;2023-03-14T13:27:34;98804.50;;;17.76;38.04
64521;BME280;50896;46.714;17.322;2023-03-14T13:30:24;98816.00;;;17.71;38.62
64521;BME280;50896;46.714;17.322;2023-03-14T13:32:52;98815.13;;;17.66;38.21
64521;BME280;50896;46.714;17.322;2023-03-14T13:35:27;98809.19;;;17.47;38.39
64521;BME280;50896;46.714;17.322;2023-03-14T13:38:00;98811.34;;;17.45;39.24
64521;BME280;50896;46.714;17.322;2023-03-14T13:40:38;98822.00;;;17.22;40.50
64521;BME280;50896;46.714;17.322;2023-03-14T13:43:18;98826.91;;;17.08;42.98
64521;BME280;50896;46.714;17.322;2023-03-14T13:48:27;98813.50;;;16.80;44.45
64521;BME280;50896;46.714;17.322;2023-03-14T13:50:59;98831.50;;;16.67;45.57
64521;BME280;50896;46.714;17.322;2023-03-14T13:53:27;98833.63;;;16.65;45.46
64521;BME280;50896;46.714;17.322;2023-03-14T13:55:54;98862.63;;;16.80;43.88
64521;BME280;50896;46.714;17.322;2023-03-14T13:58:23;98884.91;;;16.81;45.88
64521;BME280;50896;46.714;17.322;2023-03-14T14:01:15;98892.84;;;16.75;49.85
64521;BME280;50896;46.714;17.322;2023-03-14T14:03:46;98925.66;;;16.66;51.36
64521;BME280;50896;46.714;17.322;2023-03-14T14:06:38;98913.16;;;16.31;53.83
64521;BME280;50896;46.714;17.322;2023-03-14T14:09:14;98919.25;;;16.14;54.97
64521;BME280;50896;46.714;17.322;2023-03-14T14:11:54;98896.91;;;15.85;56.27
64521;BME280;50896;46.714;17.322;2023-03-14T14:14:47;98925.75;;;15.71;56.60
64521;BME280;50896;46.714;17.322;2023-03-14T14:17:20;98940.66;;;15.55;57.40
64521;BME280;50896;46.714;17.322;2023-03-14T14:19:48;98934.00;;;15.46;58.27
64521;BME280;50896;46.714;17.322;2023-03-14T14:22:16;98938.41;;;15.40;58.58
64521;BME280;50896;46.714;17.322;2023-03-14T14:24:44;98917.31;;;15.20;58.51